createdAt,value
2019-03-09T00:02:16.036Z,133.20
2019-03-09T00:04:47.549Z,125.40
2019-03-09T00:07:19.506Z,136.20
2019-03-09T00:09:51.256Z,134.60
2019-03-09T00:12:22.942Z,133.60
2019-03-09T00:14:54.550Z,141.00
2019-03-09T00:17:26.073Z,134.60
2019-03-09T00:19:59.534Z,145.80
2019-03-09T00:22:31.038Z,144.00
2019-03-09T00:25:10.975Z,136.00
2019-03-09T00:27:53.925Z,141.00
2019-03-09T00:30:39.927Z,147.60
2019-03-09T00:33:11.636Z,140.60
2019-03-09T00:35:43.373Z,132.60
2019-03-09T00:38:15.139Z,147.40
2019-03-09T00:40:48.076Z,140.40
2019-03-09T00:43:19.574Z,151.40
2019-03-09T00:45:51.379Z,115.00
2019-03-09T00:48:22.970Z,143.20
2019-03-09T00:50:54.232Z,133.80
2019-03-09T00:53:25.991Z,141.00
2019-03-09T00:55:57.321Z,133.20
2019-03-09T00:58:29.001Z,146.20
2019-03-09T01:01:00.561Z,151.00
2019-03-09T01:03:32.444Z,144.80
2019-03-09T01:06:03.860Z,134.40
2019-03-09T01:08:35.807Z,130.60
2019-03-09T01:11:07.465Z,128.80
2019-03-09T01:13:39.362Z,147.00
2019-03-09T01:16:11.098Z,141.40
2019-03-09T01:18:42.734Z,144.60
2019-03-09T01:21:14.499Z,126.80
2019-03-09T01:23:46.458Z,160.80
2019-03-09T01:26:18.434Z,152.40
2019-03-09T01:28:50.359Z,149.00
2019-03-09T01:31:22.068Z,133.60
2019-03-09T01:33:54.785Z,134.60
2019-03-09T01:36:26.926Z,131.00
2019-03-09T01:38:58.455Z,134.40
2019-03-09T01:41:30.087Z,119.00
2019-03-09T01:44:01.761Z,132.00
2019-03-09T01:46:33.399Z,134.00
2019-03-09T01:49:05.347Z,116.60
2019-03-09T01:51:37.034Z,129.60
2019-03-09T01:54:08.950Z,139.00
2019-03-09T01:56:40.443Z,136.40
2019-03-09T01:59:12.325Z,131.00
2019-03-09T02:01:44.157Z,136.60
2019-03-09T02:04:16.108Z,129.00
2019-03-09T02:06:47.675Z,157.60
2019-03-09T02:09:20.327Z,163.80
2019-03-09T02:11:52.226Z,148.80
2019-03-09T02:14:24.214Z,160.60
2019-03-09T02:16:56.022Z,146.00
2019-03-09T02:19:27.964Z,146.80
2019-03-09T02:21:59.863Z,149.20
2019-03-09T02:24:31.968Z,161.00
2019-03-09T02:27:03.311Z,145.20
2019-03-09T02:29:35.062Z,152.80
2019-03-09T02:32:06.862Z,157.00
2019-03-09T02:34:38.436Z,140.40
2019-03-09T02:37:10.262Z,143.60
2019-03-09T02:39:52.939Z,150.80
2019-03-09T02:42:24.253Z,153.60
2019-03-09T02:44:55.961Z,157.00
2019-03-09T02:47:27.605Z,141.60
2019-03-09T02:49:59.331Z,143.60
2019-03-09T02:52:30.967Z,152.60
2019-03-09T02:55:02.613Z,156.60
2019-03-09T02:57:34.292Z,152.80
2019-03-09T03:00:08.288Z,143.00
2019-03-09T03:02:43.596Z,169.60
2019-03-09T03:05:15.906Z,163.20
2019-03-09T03:07:48.563Z,167.20
2019-03-09T03:10:20.444Z,166.80
2019-03-09T03:12:52.423Z,171.40
2019-03-09T03:15:34.557Z,151.80
2019-03-09T03:18:06.840Z,187.20
2019-03-09T03:20:38.258Z,178.80
2019-03-09T03:23:10.045Z,176.00
2019-03-09T03:25:41.393Z,173.40
2019-03-09T03:28:13.203Z,148.80
2019-03-09T03:30:44.685Z,152.80
2019-03-09T03:33:16.638Z,159.60
2019-03-09T03:35:48.478Z,152.00
2019-03-09T03:38:20.541Z,163.80
2019-03-09T03:40:52.827Z,145.40
2019-03-09T03:43:24.228Z,162.20
2019-03-09T03:45:56.174Z,157.20
2019-03-09T03:48:27.936Z,162.40
2019-03-09T03:50:59.305Z,148.40
2019-03-09T03:53:31.314Z,135.60
2019-03-09T03:56:02.875Z,117.40
2019-03-09T03:58:34.963Z,128.60
2019-03-09T04:01:06.935Z,134.20
2019-03-09T04:03:38.791Z,136.20
2019-03-09T04:06:11.848Z,124.80
2019-03-09T04:08:44.206Z,134.60
2019-03-09T04:11:16.550Z,124.40
2019-03-09T04:13:49.610Z,103.00
2019-03-09T04:16:21.231Z,113.80
2019-03-09T04:18:53.067Z,111.60
2019-03-09T04:21:24.690Z,99.00
2019-03-09T04:23:56.563Z,101.20
2019-03-09T04:26:28.398Z,100.20
2019-03-09T04:29:00.464Z,100.20
2019-03-09T04:31:32.255Z,102.40
2019-03-09T04:34:04.286Z,114.00
2019-03-09T04:36:35.930Z,101.60
2019-03-09T04:39:08.133Z,110.60
2019-03-09T04:41:40.425Z,108.40
2019-03-09T04:44:12.183Z,93.20
2019-03-09T04:46:44.069Z,112.00
2019-03-09T04:49:15.560Z,99.00
2019-03-09T04:51:47.300Z,102.80
2019-03-09T04:54:18.778Z,99.40
2019-03-09T04:56:50.865Z,86.80
2019-03-09T04:59:22.462Z,92.40
2019-03-09T05:01:54.375Z,96.40
2019-03-09T05:04:54.904Z,102.80
2019-03-09T05:07:41.194Z,105.60
2019-03-09T05:10:32.581Z,86.00
2019-03-09T05:13:11.021Z,76.00
2019-03-09T05:15:42.496Z,80.60
2019-03-09T05:18:14.802Z,78.40
2019-03-09T05:20:46.366Z,75.60
2019-03-09T05:23:18.326Z,73.40
2019-03-09T05:25:50.142Z,70.80
2019-03-09T05:28:22.050Z,59.80
2019-03-09T05:30:53.533Z,66.60
2019-03-09T05:33:25.069Z,60.80
2019-03-09T05:35:56.587Z,61.60
2019-03-09T05:38:28.305Z,63.40
2019-03-09T05:40:59.806Z,65.00
2019-03-09T05:43:31.556Z,62.60
2019-03-09T05:46:03.366Z,67.40
2019-03-09T05:48:35.730Z,62.40
2019-03-09T05:51:07.209Z,53.60
2019-03-09T05:53:38.708Z,65.00
2019-03-09T05:56:10.297Z,70.20
2019-03-09T05:58:42.141Z,70.00
2019-03-09T06:01:13.631Z,66.20
2019-03-09T06:03:45.574Z,64.80
2019-03-09T06:06:18.776Z,65.40
2019-03-09T06:08:51.569Z,67.00
2019-03-09T06:11:23.083Z,61.60
2019-03-09T06:13:55.144Z,64.00
2019-03-09T06:16:27.107Z,60.00
2019-03-09T06:18:59.371Z,53.40
2019-03-09T06:21:30.889Z,49.00
2019-03-09T06:24:02.645Z,58.80
2019-03-09T06:26:34.061Z,38.60
2019-03-09T06:29:06.736Z,55.60
2019-03-09T06:31:38.441Z,53.00
2019-03-09T06:34:10.028Z,57.80
2019-03-09T06:37:02.587Z,54.80
2019-03-09T06:39:40.437Z,49.00
2019-03-09T06:42:39.744Z,56.60
2019-03-09T06:45:16.590Z,58.80
2019-03-09T06:47:48.193Z,56.00
2019-03-09T06:50:21.393Z,61.80
2019-03-09T06:52:52.718Z,59.20
2019-03-09T06:55:25.253Z,58.20
2019-03-09T06:57:56.794Z,60.80
2019-03-09T07:00:40.447Z,52.80
2019-03-09T07:03:13.525Z,59.60
2019-03-09T07:05:44.921Z,56.00
2019-03-09T07:08:16.419Z,51.20
2019-03-09T07:10:48.161Z,53.00
2019-03-09T07:13:19.990Z,42.80
2019-03-09T07:15:51.736Z,47.20
2019-03-09T07:18:29.547Z,41.00
2019-03-09T07:21:01.060Z,45.00
2019-03-09T07:23:33.161Z,52.40
2019-03-09T07:26:04.635Z,54.80
2019-03-09T07:28:36.322Z,41.40
2019-03-09T07:31:09.101Z,44.60
2019-03-09T07:33:42.161Z,44.80
2019-03-09T07:36:13.962Z,51.00
2019-03-09T07:38:45.810Z,45.40
2019-03-09T07:41:17.997Z,44.80
2019-03-09T07:43:50.044Z,46.40
2019-03-09T07:46:21.634Z,48.20
2019-03-09T07:48:53.114Z,36.80
2019-03-09T07:51:25.025Z,32.00
2019-03-09T07:53:56.831Z,36.40
2019-03-09T07:56:28.528Z,42.80
2019-03-09T07:59:00.121Z,36.00
2019-03-09T08:01:31.685Z,38.40
2019-03-09T08:04:03.242Z,34.00
2019-03-09T08:06:36.144Z,42.00
2019-03-09T08:09:08.277Z,46.20
2019-03-09T08:11:40.748Z,51.40
2019-03-09T08:14:12.575Z,30.40
2019-03-09T08:16:44.078Z,42.40
2019-03-09T08:19:15.688Z,39.40
2019-03-09T08:21:47.417Z,38.80
2019-03-09T08:24:18.781Z,41.40
2019-03-09T08:26:50.303Z,30.40
2019-03-09T08:29:22.098Z,50.00
2019-03-09T08:31:53.808Z,37.40
2019-03-09T08:34:25.636Z,43.00
2019-03-09T08:36:57.292Z,43.60
2019-03-09T08:39:28.940Z,34.40
2019-03-09T08:42:01.345Z,38.00
2019-03-09T08:44:32.785Z,29.40
2019-03-09T08:47:04.238Z,37.20
2019-03-09T08:49:35.753Z,42.20
2019-03-09T08:52:07.252Z,40.60
2019-03-09T08:54:38.855Z,52.20
2019-03-09T08:57:10.537Z,34.60
2019-03-09T08:59:42.043Z,41.00
2019-03-09T09:02:13.484Z,46.00
2019-03-09T09:04:45.397Z,37.40
2019-03-09T09:07:17.102Z,37.40
2019-03-09T09:09:49.298Z,41.20
2019-03-09T09:12:21.630Z,42.00
2019-03-09T09:14:53.462Z,32.80
2019-03-09T09:17:25.314Z,42.80
2019-03-09T09:19:56.987Z,43.00
2019-03-09T09:22:28.858Z,39.80
2019-03-09T09:25:00.561Z,37.80
2019-03-09T09:27:32.945Z,43.20
2019-03-09T09:30:05.049Z,46.00
2019-03-09T09:32:37.247Z,41.60
2019-03-09T09:35:10.235Z,39.40
2019-03-09T09:37:42.352Z,38.80
2019-03-09T09:40:17.295Z,37.40
2019-03-09T09:42:49.587Z,42.80
2019-03-09T09:45:21.711Z,44.20
2019-03-09T09:47:54.312Z,43.40
2019-03-09T09:50:29.056Z,44.60
2019-03-09T09:53:01.412Z,45.60
2019-03-09T09:55:33.337Z,40.20
2019-03-09T09:58:05.266Z,40.60
2019-03-09T10:00:38.130Z,43.50
2019-03-09T10:03:12.029Z,49.40
2019-03-09T10:05:44.655Z,44.80
2019-03-09T10:08:16.413Z,48.60
2019-03-09T10:10:48.584Z,42.40
2019-03-09T10:13:20.351Z,50.40
2019-03-09T10:15:52.221Z,51.00
2019-03-09T10:18:24.030Z,41.60
2019-03-09T10:20:55.502Z,47.00
2019-03-09T10:23:27.478Z,40.40
2019-03-09T10:26:00.050Z,32.00
2019-03-09T10:28:32.088Z,38.20
2019-03-09T10:31:05.483Z,44.40
2019-03-09T10:33:36.949Z,48.40
2019-03-09T10:36:08.769Z,48.20
2019-03-09T10:38:41.167Z,50.40
2019-03-09T10:41:13.426Z,50.20
2019-03-09T10:43:46.487Z,36.20
2019-03-09T10:46:18.798Z,39.00
2019-03-09T10:48:51.036Z,40.00
2019-03-09T10:51:22.814Z,38.00
2019-03-09T10:53:54.681Z,50.00
2019-03-09T10:56:28.088Z,45.40
2019-03-09T10:58:59.803Z,40.20
2019-03-09T11:01:31.329Z,39.40
2019-03-09T11:04:04.878Z,44.60
2019-03-09T11:06:36.527Z,43.80
2019-03-09T11:09:08.995Z,41.80
2019-03-09T11:11:41.278Z,44.60
2019-03-09T11:14:13.131Z,42.40
2019-03-09T11:16:44.689Z,41.40
2019-03-09T11:19:16.403Z,48.60
2019-03-09T11:21:47.997Z,47.20
2019-03-09T11:24:19.531Z,49.40
2019-03-09T11:26:51.007Z,48.00
2019-03-09T11:29:23.145Z,54.00
2019-03-09T11:31:54.934Z,47.60
2019-03-09T11:34:26.538Z,40.80
2019-03-09T11:36:58.207Z,51.80
2019-03-09T11:39:29.795Z,42.40
2019-03-09T11:42:01.577Z,36.40
2019-03-09T11:44:33.086Z,37.60
2019-03-09T11:47:04.914Z,40.40
2019-03-09T11:49:36.810Z,44.20
2019-03-09T11:52:16.297Z,42.20
2019-03-09T11:54:42.574Z,46.00
2019-03-09T11:57:14.467Z,46.40
2019-03-09T11:59:45.792Z,52.80
2019-03-09T12:02:17.485Z,42.80
2019-03-09T12:04:49.099Z,55.80
2019-03-09T12:07:20.791Z,56.80
2019-03-09T12:09:52.590Z,52.00
2019-03-09T12:12:24.613Z,48.20
2019-03-09T12:14:56.272Z,56.40
2019-03-09T12:17:28.036Z,44.40
2019-03-09T12:19:59.467Z,51.00
2019-03-09T12:22:31.411Z,53.60
2019-03-09T12:25:02.756Z,53.60
2019-03-09T12:27:34.000Z,48.00
2019-03-09T12:30:06.189Z,49.40
2019-03-09T12:32:37.818Z,54.80
2019-03-09T12:35:09.464Z,56.00
2019-03-09T12:37:41.365Z,50.80
2019-03-09T12:40:14.946Z,55.40
2019-03-09T12:42:46.732Z,55.20
2019-03-09T12:45:18.548Z,54.00
2019-03-09T12:47:50.924Z,53.60
2019-03-09T12:50:22.870Z,53.80
2019-03-09T12:52:54.871Z,54.80
2019-03-09T12:55:26.463Z,52.80
2019-03-09T12:57:58.132Z,53.00
2019-03-09T13:00:29.885Z,55.60
2019-03-09T13:03:01.464Z,54.20
2019-03-09T13:05:32.975Z,57.80
2019-03-09T13:08:04.658Z,65.40
2019-03-09T13:10:36.286Z,75.60
2019-03-09T13:13:07.758Z,77.40
2019-03-09T13:15:39.344Z,80.20
2019-03-09T13:18:11.343Z,72.80
2019-03-09T13:20:43.068Z,71.80
2019-03-09T13:23:14.778Z,75.40
2019-03-09T13:25:46.506Z,70.60
2019-03-09T13:28:18.148Z,69.80
2019-03-09T13:30:49.976Z,65.00
2019-03-09T13:33:21.416Z,62.80
2019-03-09T13:35:53.285Z,66.00
2019-03-09T13:38:25.112Z,65.60
2019-03-09T13:40:56.913Z,64.60
2019-03-09T13:43:29.789Z,62.00
2019-03-09T13:46:01.488Z,68.20
2019-03-09T13:48:33.246Z,69.80
2019-03-09T13:51:05.435Z,64.20
2019-03-09T13:53:37.785Z,70.20
2019-03-09T13:56:09.600Z,68.80
2019-03-09T13:58:41.337Z,71.60
2019-03-09T14:01:13.402Z,70.40
2019-03-09T14:03:45.805Z,79.40
2019-03-09T14:06:17.672Z,83.60
2019-03-09T14:08:49.716Z,83.40
2019-03-09T14:11:21.420Z,74.00
2019-03-09T14:13:53.248Z,72.80
2019-03-09T14:16:24.763Z,71.60
2019-03-09T14:18:57.179Z,67.60
2019-03-09T14:21:29.030Z,68.40
2019-03-09T14:24:01.210Z,68.00
2019-03-09T14:26:33.340Z,68.00
2019-03-09T14:29:05.251Z,71.40
2019-03-09T14:31:41.104Z,69.00
2019-03-09T14:34:12.867Z,62.60
2019-03-09T14:36:44.571Z,65.60
2019-03-09T14:39:16.318Z,67.00
2019-03-09T14:41:48.007Z,67.20
2019-03-09T14:44:19.898Z,65.00
2019-03-09T14:46:51.689Z,65.00
2019-03-09T14:49:23.418Z,66.80
2019-03-09T14:51:55.118Z,69.20
2019-03-09T14:54:27.102Z,70.20
2019-03-09T14:56:59.042Z,80.40
2019-03-09T14:59:30.959Z,73.20
2019-03-09T15:02:03.234Z,74.20
2019-03-09T15:04:34.972Z,75.20
2019-03-09T15:07:09.378Z,77.60
2019-03-09T15:09:41.241Z,80.00
2019-03-09T15:12:13.141Z,78.00
2019-03-09T15:14:45.078Z,85.80
2019-03-09T15:17:18.145Z,83.80
2019-03-09T15:19:49.856Z,79.20
2019-03-09T15:22:21.970Z,83.20
2019-03-09T15:24:53.422Z,82.80
2019-03-09T15:27:25.587Z,87.40
2019-03-09T15:29:57.563Z,92.00
2019-03-09T15:32:30.230Z,91.40
2019-03-09T15:35:02.078Z,91.00
2019-03-09T15:37:34.075Z,90.60
2019-03-09T15:40:06.756Z,105.60
2019-03-09T15:42:38.752Z,120.60
2019-03-09T15:45:11.315Z,106.00
2019-03-09T15:47:43.226Z,97.00
2019-03-09T15:50:15.778Z,94.60
2019-03-09T15:52:47.648Z,98.20
2019-03-09T15:55:20.238Z,93.60
2019-03-09T15:57:53.818Z,87.40
2019-03-09T16:00:25.700Z,94.60
2019-03-09T16:02:57.397Z,94.20
2019-03-09T16:05:29.217Z,95.60
2019-03-09T16:08:03.642Z,91.00
2019-03-09T16:10:35.990Z,94.20
2019-03-09T16:13:07.957Z,91.00
2019-03-09T16:15:39.843Z,93.20
2019-03-09T16:18:11.708Z,92.80
2019-03-09T16:20:43.428Z,94.80
2019-03-09T16:23:15.159Z,95.60
2019-03-09T16:25:46.843Z,88.80
2019-03-09T16:28:18.637Z,93.20
2019-03-09T16:30:50.350Z,88.40
2019-03-09T16:33:22.226Z,99.20
2019-03-09T16:35:54.164Z,93.20
2019-03-09T16:38:25.916Z,91.80
2019-03-09T16:40:57.653Z,94.00
2019-03-09T16:43:29.316Z,102.00
2019-03-09T16:46:00.955Z,91.80
2019-03-09T16:48:32.806Z,92.40
2019-03-09T16:51:04.369Z,83.20
2019-03-09T16:53:36.343Z,91.00
2019-03-09T16:56:08.110Z,89.80
2019-03-09T16:58:40.524Z,88.80
2019-03-09T17:01:12.444Z,89.40
2019-03-09T17:03:43.989Z,83.60
2019-03-09T17:06:15.856Z,83.20
2019-03-09T17:08:47.533Z,85.60
2019-03-09T17:11:19.230Z,82.80
2019-03-09T17:13:50.794Z,83.20
2019-03-09T17:16:22.141Z,88.80
2019-03-09T17:18:54.104Z,83.60
2019-03-09T17:21:25.738Z,82.80
2019-03-09T17:23:57.385Z,72.40
2019-03-09T17:26:28.999Z,78.00
2019-03-09T17:29:02.052Z,79.60
2019-03-09T17:31:33.656Z,79.40
2019-03-09T17:34:05.307Z,85.60
2019-03-09T17:36:37.184Z,81.80
2019-03-09T17:39:10.943Z,79.40
2019-03-09T17:41:43.242Z,80.00
2019-03-09T17:44:14.506Z,81.40
2019-03-09T17:46:46.084Z,74.20
2019-03-09T17:49:18.444Z,73.80
2019-03-09T17:51:49.904Z,79.80
2019-03-09T17:54:21.576Z,76.80
2019-03-09T17:56:53.263Z,78.60
2019-03-09T17:59:24.787Z,75.20
2019-03-09T18:01:56.233Z,76.20
2019-03-09T18:04:27.558Z,80.00
2019-03-09T18:06:58.908Z,76.60
2019-03-09T18:09:30.455Z,79.20
2019-03-09T18:12:02.298Z,80.80
2019-03-09T18:14:34.482Z,80.00
2019-03-09T18:17:06.351Z,84.00
2019-03-09T18:19:37.972Z,82.40
2019-03-09T18:22:09.770Z,78.80
2019-03-09T18:24:41.597Z,83.80
2019-03-09T18:27:13.208Z,84.60
2019-03-09T18:29:44.792Z,83.20
2019-03-09T18:32:17.192Z,86.40
2019-03-09T18:34:48.897Z,78.40
2019-03-09T18:37:20.480Z,81.20
2019-03-09T18:39:52.100Z,86.00
2019-03-09T18:42:24.397Z,91.20
2019-03-09T18:44:56.224Z,88.40
2019-03-09T18:47:27.570Z,90.40
2019-03-09T18:50:00.268Z,86.80
2019-03-09T18:52:33.148Z,88.00
2019-03-09T18:55:04.779Z,89.80
2019-03-09T18:57:36.814Z,90.80
2019-03-09T19:00:09.342Z,89.20
2019-03-09T19:02:41.372Z,87.80
2019-03-09T19:05:13.228Z,86.60
2019-03-09T19:07:44.982Z,93.40
2019-03-09T19:10:18.052Z,93.20
2019-03-09T19:12:49.835Z,93.20
2019-03-09T19:15:21.859Z,101.40
2019-03-09T19:17:54.049Z,93.20
2019-03-09T19:20:25.597Z,89.00
2019-03-09T19:22:57.652Z,90.60
2019-03-09T19:25:29.166Z,91.40
2019-03-09T19:28:01.226Z,98.00
2019-03-09T19:30:32.984Z,91.60
2019-03-09T19:33:05.153Z,91.20
2019-03-09T19:35:36.742Z,102.00
2019-03-09T19:38:08.686Z,97.40
2019-03-09T19:40:40.342Z,103.40
2019-03-09T19:43:11.996Z,98.20
2019-03-09T19:45:43.291Z,101.20
2019-03-09T19:48:14.983Z,114.40
2019-03-09T19:50:46.482Z,103.20
2019-03-09T19:53:18.228Z,96.80
2019-03-09T19:55:50.079Z,107.20
2019-03-09T19:58:21.929Z,99.20
2019-03-09T20:00:53.567Z,102.20
2019-03-09T20:03:25.108Z,99.40
2019-03-09T20:05:56.641Z,104.20
2019-03-09T20:08:28.316Z,109.60
2019-03-09T20:10:59.950Z,102.20
2019-03-09T20:13:31.934Z,107.60
2019-03-09T20:16:04.428Z,106.80
2019-03-09T20:18:36.498Z,96.80
2019-03-09T20:21:08.027Z,101.40
2019-03-09T20:23:39.942Z,106.00
2019-03-09T20:26:11.959Z,105.60
2019-03-09T20:28:43.610Z,100.80
2019-03-09T20:31:15.266Z,111.00
2019-03-09T20:33:47.161Z,103.00
2019-03-09T20:36:19.111Z,112.20
2019-03-09T20:38:52.061Z,111.20
2019-03-09T20:41:24.930Z,107.40
2019-03-09T20:43:56.533Z,115.80
2019-03-09T20:46:28.460Z,112.60
2019-03-09T20:49:00.303Z,105.00
2019-03-09T20:51:31.824Z,116.20
2019-03-09T20:54:03.357Z,114.40
2019-03-09T20:56:34.893Z,122.80
2019-03-09T20:59:06.743Z,115.20
2019-03-09T21:01:38.337Z,110.60
2019-03-09T21:04:09.903Z,117.20
2019-03-09T21:06:41.517Z,112.60
2019-03-09T21:09:13.319Z,111.00
2019-03-09T21:11:45.073Z,120.80
2019-03-09T21:14:16.606Z,107.20
2019-03-09T21:16:48.136Z,115.20
2019-03-09T21:19:19.766Z,123.80
2019-03-09T21:21:51.316Z,127.60
2019-03-09T21:24:22.742Z,120.00
2019-03-09T21:26:54.127Z,118.00
2019-03-09T21:29:25.896Z,120.60
2019-03-09T21:31:57.419Z,113.40
2019-03-09T21:34:29.083Z,116.40
2019-03-09T21:37:00.560Z,103.60
2019-03-09T21:39:32.117Z,111.80
2019-03-09T21:42:03.922Z,114.80
2019-03-09T21:44:35.495Z,108.20
2019-03-09T21:47:07.509Z,129.00
2019-03-09T21:49:39.087Z,127.80
2019-03-09T21:52:10.834Z,116.40
2019-03-09T21:54:42.504Z,119.00
2019-03-09T21:57:13.842Z,122.80
2019-03-09T21:59:45.506Z,117.00
2019-03-09T22:02:17.036Z,115.80
2019-03-09T22:04:48.680Z,122.00
2019-03-09T22:07:20.336Z,110.40
2019-03-09T22:09:51.943Z,112.60
2019-03-09T22:12:23.294Z,117.80
2019-03-09T22:14:54.942Z,121.40
2019-03-09T22:17:26.644Z,118.60
2019-03-09T22:19:58.526Z,117.60
2019-03-09T22:22:30.283Z,122.00
2019-03-09T22:25:02.012Z,119.60
2019-03-09T22:27:33.974Z,119.40
2019-03-09T22:30:06.004Z,113.20
2019-03-09T22:32:37.648Z,116.40
2019-03-09T22:35:10.495Z,119.80
2019-03-09T22:37:42.388Z,103.80
2019-03-09T22:40:14.116Z,109.80
2019-03-09T22:42:45.873Z,110.60
2019-03-09T22:45:17.706Z,104.60
2019-03-09T22:47:49.484Z,111.80
2019-03-09T22:50:39.343Z,101.20
2019-03-09T22:53:12.028Z,105.20
2019-03-09T22:55:43.612Z,109.40
2019-03-09T22:58:16.419Z,103.00
2019-03-09T23:00:48.024Z,108.60
2019-03-09T23:03:21.479Z,117.80
2019-03-09T23:05:53.030Z,101.80
2019-03-09T23:08:24.660Z,101.60
2019-03-09T23:10:56.355Z,101.60
2019-03-09T23:13:28.194Z,98.60
2019-03-09T23:15:59.649Z,100.20
2019-03-09T23:18:31.178Z,94.20
2019-03-09T23:21:02.568Z,102.40
2019-03-09T23:23:34.394Z,98.20
2019-03-09T23:26:05.826Z,98.80
2019-03-09T23:28:49.830Z,105.60
2019-03-09T23:31:21.495Z,105.40
2019-03-09T23:33:53.308Z,112.80
2019-03-09T23:36:24.890Z,97.20
2019-03-09T23:38:56.302Z,102.00
2019-03-09T23:41:27.774Z,101.80
2019-03-09T23:43:59.375Z,102.40
2019-03-09T23:46:31.072Z,109.60
2019-03-09T23:49:02.771Z,125.00
2019-03-09T23:51:34.704Z,118.20
2019-03-09T23:54:06.729Z,118.00
2019-03-09T23:56:38.329Z,115.40
2019-03-09T23:59:10.262Z,126.40
